Orbital elements of FENGYUN 1C DEB
| Launched | 9 May 1999 |
| Flight ended | – |
| Launch site | Taiyuan Space Center, PRC |
| Owner | People's Republic of China |
| NORAD ID | 31455 |
| Date fetched |
Epoch osculation |
Inc. [°] |
Ecc. | RA asc node [hr] |
Arg Peri. [°] |
Mean anom [°] |
Mean motion [rev/day] |
Abs. mag |
| Date fetched |
Epoch osculation |
Inc. [°] |
Ecc. | RA asc node [hr] |
Arg Peri. [°] |
Mean anom [°] |
Mean motion [rev/day] |
Abs. mag |
| 2026 May 04 17:57 | 2026 Apr 29 22:07:23 | 98.5887 | 0.02178 | 7.1504 | 17.0203 | 343.8128 | 14.11615 | – |
| 2026 May 03 17:57 | 2026 Apr 29 22:07:23 | 98.5887 | 0.02178 | 7.1504 | 17.0203 | 343.8128 | 14.11615 | – |
| 2026 May 02 17:57 | 2026 Apr 29 22:07:23 | 98.5887 | 0.02178 | 7.1504 | 17.0203 | 343.8128 | 14.11615 | – |
| 2026 May 01 17:56 | 2026 Apr 29 22:07:23 | 98.5887 | 0.02178 | 7.1504 | 17.0203 | 343.8128 | 14.11615 | – |
| 2026 Apr 30 17:56 | 2026 Apr 29 22:07:23 | 98.5887 | 0.02178 | 7.1504 | 17.0203 | 343.8128 | 14.11615 | – |
| 2026 Apr 29 17:57 | 2026 Apr 24 04:20:02 | 98.5885 | 0.02181 | 6.7836 | 33.3562 | 343.8128 | 14.11615 | – |
| 2026 Apr 28 17:56 | 2026 Apr 24 04:20:02 | 98.5885 | 0.02181 | 6.7836 | 33.3562 | 343.8128 | 14.11615 | – |
| 2026 Apr 27 17:58 | 2026 Apr 24 04:20:02 | 98.5885 | 0.02181 | 6.7836 | 33.3562 | 343.8128 | 14.11615 | – |
| 2026 Apr 26 17:58 | 2026 Apr 24 04:20:02 | 98.5885 | 0.02181 | 6.7836 | 33.3562 | 343.8128 | 14.11615 | – |
| 2026 Apr 25 17:58 | 2026 Apr 24 04:20:02 | 98.5885 | 0.02181 | 6.7836 | 33.3562 | 343.8128 | 14.11615 | – |
| 2026 Apr 24 17:59 | 2026 Apr 24 04:20:02 | 98.5885 | 0.02181 | 6.7836 | 33.3562 | 343.8128 | 14.11615 | – |
| 2026 Apr 23 17:57 | 2026 Apr 19 05:15:20 | 98.5882 | 0.02184 | 6.4666 | 47.4579 | 343.8128 | 14.11615 | – |
| 2026 Apr 22 17:57 | 2026 Apr 19 05:15:20 | 98.5882 | 0.02184 | 6.4666 | 47.4579 | 343.8128 | 14.11615 | – |
| 2026 Apr 21 17:57 | 2026 Apr 19 05:15:20 | 98.5882 | 0.02184 | 6.4666 | 47.4579 | 343.8128 | 14.11615 | – |
| 2026 Apr 20 17:57 | 2026 Apr 19 05:15:20 | 98.5882 | 0.02184 | 6.4666 | 47.4579 | 343.8128 | 14.11615 | – |
| 2026 Apr 19 17:58 | 2026 Apr 19 05:15:20 | 98.5882 | 0.02184 | 6.4666 | 47.4579 | 343.8128 | 14.11615 | – |
| 2026 Apr 18 17:56 | 2026 Apr 11 16:56:08 | 98.5879 | 0.02185 | 5.9867 | 68.7757 | 343.8128 | 14.11615 | – |
| 2026 Apr 16 17:57 | 2026 Apr 11 16:56:08 | 98.5879 | 0.02185 | 5.9867 | 68.7757 | 343.8128 | 14.11615 | – |
| 2026 Apr 14 17:57 | 2026 Apr 11 16:56:08 | 98.5879 | 0.02185 | 5.9867 | 68.7757 | 343.8128 | 14.11615 | – |
| 2026 Apr 13 17:57 | 2026 Apr 11 16:56:08 | 98.5879 | 0.02185 | 5.9867 | 68.7757 | 343.8128 | 14.11615 | – |
| 2026 Apr 12 17:57 | 2026 Apr 08 05:34:46 | 98.5872 | 0.02186 | 5.7648 | 78.6286 | 343.8128 | 14.11615 | – |
| 2026 Apr 11 17:57 | 2026 Apr 08 05:34:46 | 98.5872 | 0.02186 | 5.7648 | 78.6286 | 343.8128 | 14.11615 | – |
| 2026 Apr 10 17:58 | 2026 Apr 08 05:34:46 | 98.5872 | 0.02186 | 5.7648 | 78.6286 | 343.8128 | 14.11615 | – |
| 2026 Apr 09 18:01 | 2026 Apr 08 05:34:46 | 98.5872 | 0.02186 | 5.7648 | 78.6286 | 343.8128 | 14.11615 | – |
| 2026 Apr 08 17:57 | 2026 Apr 08 05:34:46 | 98.5872 | 0.02186 | 5.7648 | 78.6286 | 343.8128 | 14.11615 | – |
| 2026 Apr 07 17:57 | 2026 Apr 01 05:09:50 | 98.5873 | 0.02186 | 5.3167 | 98.5490 | 343.8128 | 14.11615 | – |